createdAt,value
2019-06-20T00:01:34.226Z,100111.00
2019-06-20T00:04:06.986Z,100112.98
2019-06-20T00:06:39.071Z,100104.95
2019-06-20T00:09:11.252Z,100107.23
2019-06-20T00:11:43.340Z,100105.50
2019-06-20T00:14:15.375Z,100107.12
2019-06-20T00:16:47.356Z,100109.80
2019-06-20T00:19:19.311Z,100111.08
2019-06-20T00:21:51.735Z,100110.59
2019-06-20T00:24:23.646Z,100109.99
2019-06-20T00:26:55.610Z,100107.41
2019-06-20T00:29:27.546Z,100104.49
2019-06-20T00:31:59.609Z,100103.55
2019-06-20T00:34:31.539Z,100100.36
2019-06-20T00:37:03.512Z,100100.87
2019-06-20T00:39:35.428Z,100100.38
2019-06-20T00:42:07.812Z,100095.68
2019-06-20T00:44:39.752Z,100094.20
2019-06-20T00:47:11.719Z,100097.32
2019-06-20T00:49:43.691Z,100092.26
2019-06-20T00:52:15.678Z,100088.68
2019-06-20T00:54:47.604Z,100096.58
2019-06-20T00:57:20.727Z,100089.95
2019-06-20T00:59:52.908Z,100089.75
2019-06-20T01:02:24.855Z,100087.00
2019-06-20T01:04:58.018Z,100088.39
2019-06-20T01:07:29.947Z,100084.81
2019-06-20T01:10:02.845Z,100084.52
2019-06-20T01:12:34.877Z,100082.13
2019-06-20T01:15:08.005Z,100085.52
2019-06-20T01:17:40.077Z,100082.50
2019-06-20T01:20:14.344Z,100077.80
2019-06-20T01:22:46.341Z,100083.74
2019-06-20T01:25:28.559Z,100078.80
2019-06-20T01:28:02.125Z,100076.59
2019-06-20T01:30:34.287Z,100069.25
2019-06-20T01:33:06.610Z,100064.88
2019-06-20T01:35:38.779Z,100062.09
2019-06-20T01:38:10.821Z,100063.28
2019-06-20T01:40:42.799Z,100065.29
2019-06-20T01:43:14.814Z,100060.16
2019-06-20T01:45:46.909Z,100050.52
2019-06-20T01:48:18.865Z,100054.92
2019-06-20T01:50:50.963Z,100054.64
2019-06-20T01:53:22.892Z,100053.75
2019-06-20T01:55:54.838Z,100058.21
2019-06-20T01:58:26.781Z,100050.52
2019-06-20T02:00:58.687Z,100047.80
2019-06-20T02:03:30.865Z,100046.50
2019-06-20T02:06:04.479Z,100049.84
2019-06-20T02:08:36.456Z,100048.58
2019-06-20T02:11:08.375Z,100047.66
2019-06-20T02:13:40.346Z,100040.08
2019-06-20T02:16:12.372Z,100041.08
2019-06-20T02:18:44.725Z,100037.72
2019-06-20T02:21:16.738Z,100038.15
2019-06-20T02:23:48.722Z,100036.53
2019-06-20T02:26:20.832Z,100035.50
2019-06-20T02:28:52.851Z,100037.39
2019-06-20T02:31:24.979Z,100031.03
2019-06-20T02:33:58.555Z,100031.98
2019-06-20T02:36:30.595Z,100029.41
2019-06-20T02:39:02.695Z,100027.22
2019-06-20T02:41:36.628Z,100032.73
2019-06-20T02:44:28.515Z,100029.41
2019-06-20T02:46:42.834Z,100023.63
2019-06-20T02:49:14.762Z,100020.53
2019-06-20T02:51:46.853Z,100028.33
2019-06-20T02:54:18.993Z,100031.72
2019-06-20T02:56:50.929Z,100029.02
2019-06-20T02:59:22.867Z,100037.94
2019-06-20T03:01:54.861Z,100032.07
2019-06-20T03:04:27.787Z,100035.48
2019-06-20T03:06:59.722Z,100025.17
2019-06-20T03:09:31.717Z,100033.73
2019-06-20T03:12:04.591Z,100031.33
2019-06-20T03:14:45.562Z,100036.91
2019-06-20T03:17:10.225Z,100038.58
2019-06-20T03:19:42.248Z,100041.46
2019-06-20T03:22:14.209Z,100029.99
2019-06-20T03:24:46.197Z,100027.72
2019-06-20T03:27:18.214Z,100029.61
2019-06-20T03:29:52.035Z,100029.09
2019-06-20T03:32:24.002Z,100031.00
2019-06-20T03:34:55.948Z,100032.73
2019-06-20T03:37:27.948Z,100032.59
2019-06-20T03:39:59.931Z,100033.80
2019-06-20T03:42:32.744Z,100038.66
2019-06-20T03:45:05.690Z,100037.08
2019-06-20T03:47:37.693Z,100031.41
2019-06-20T03:50:09.869Z,100043.05
2019-06-20T03:52:41.874Z,100032.07
2019-06-20T03:55:14.023Z,100032.47
2019-06-20T03:57:46.014Z,100037.29
2019-06-20T04:00:19.702Z,100040.87
2019-06-20T04:02:53.573Z,100043.87
2019-06-20T04:05:25.548Z,100033.35
2019-06-20T04:07:57.878Z,100041.67
2019-06-20T04:10:29.859Z,100037.88
2019-06-20T04:13:02.907Z,100038.52
2019-06-20T04:15:35.300Z,100043.46
2019-06-20T04:18:07.247Z,100041.91
2019-06-20T04:20:39.255Z,100037.66
2019-06-20T04:23:11.195Z,100035.73
2019-06-20T04:25:43.186Z,100037.34
2019-06-20T04:28:15.122Z,100036.59
2019-06-20T04:30:47.102Z,100036.36
2019-06-20T04:33:19.052Z,100033.94
2019-06-20T04:35:51.083Z,100025.81
2019-06-20T04:38:23.072Z,100027.63
2019-06-20T04:40:55.009Z,100029.48
2019-06-20T04:43:28.027Z,100039.94
2019-06-20T04:46:08.820Z,100036.03
2019-06-20T04:48:40.786Z,100034.20
2019-06-20T04:51:13.722Z,100030.03
2019-06-20T04:53:45.666Z,100032.55
2019-06-20T04:56:17.642Z,100026.63
2019-06-20T04:58:49.586Z,100020.50
2019-06-20T05:01:21.565Z,100011.33
2019-06-20T05:03:55.138Z,100016.59
2019-06-20T05:06:27.083Z,100012.09
2019-06-20T05:08:59.012Z,100014.76
2019-06-20T05:11:30.952Z,100007.84
2019-06-20T05:14:02.950Z,100005.58
2019-06-20T05:16:34.879Z,100006.87
2019-06-20T05:19:08.439Z,100005.79
2019-06-20T05:21:40.420Z,99998.34
2019-06-20T05:24:12.382Z,100004.72
2019-06-20T05:26:44.698Z,100012.63
2019-06-20T05:29:16.756Z,100019.55
2019-06-20T05:31:48.712Z,100015.77
2019-06-20T05:34:20.681Z,100009.75
2019-06-20T05:36:52.645Z,100016.47
2019-06-20T05:39:25.041Z,100015.48
2019-06-20T05:41:57.630Z,100021.20
2019-06-20T05:44:29.803Z,100023.13
2019-06-20T05:47:12.232Z,100022.09
2019-06-20T05:49:37.118Z,100030.20
2019-06-20T05:52:09.168Z,100026.67
2019-06-20T05:54:41.638Z,100028.95
2019-06-20T05:57:13.562Z,100029.47
2019-06-20T05:59:47.189Z,100022.58
2019-06-20T06:02:19.104Z,100022.06
2019-06-20T06:04:51.218Z,100026.00
2019-06-20T06:07:23.176Z,100028.06
2019-06-20T06:09:55.210Z,100018.28
2019-06-20T06:12:27.621Z,100020.06
2019-06-20T06:15:00.960Z,100016.20
2019-06-20T06:17:34.225Z,100020.34
2019-06-20T06:20:09.135Z,100022.52
2019-06-20T06:22:44.561Z,100024.11
2019-06-20T06:25:15.820Z,100033.06
2019-06-20T06:27:47.760Z,100034.73
2019-06-20T06:30:20.369Z,100036.02
2019-06-20T06:32:52.334Z,100036.28
2019-06-20T06:35:24.712Z,100044.31
2019-06-20T06:37:56.800Z,100031.98
2019-06-20T06:40:28.860Z,100034.75
2019-06-20T06:43:00.959Z,100030.33
2019-06-20T06:45:33.030Z,100028.45
2019-06-20T06:48:05.184Z,100029.09
2019-06-20T06:50:39.808Z,100028.54
2019-06-20T06:53:13.214Z,100027.72
2019-06-20T06:55:45.203Z,100029.52
2019-06-20T06:58:17.137Z,100034.72
2019-06-20T07:00:49.534Z,100035.80
2019-06-20T07:03:21.473Z,100030.44
2019-06-20T07:05:53.445Z,100031.94
2019-06-20T07:08:25.821Z,100031.38
2019-06-20T07:10:57.901Z,100034.46
2019-06-20T07:13:29.902Z,100037.26
2019-06-20T07:16:02.083Z,100027.39
2019-06-20T07:18:34.179Z,100023.17
2019-06-20T07:21:06.544Z,100023.77
2019-06-20T07:23:38.515Z,100017.70
2019-06-20T07:26:10.561Z,100020.69
2019-06-20T07:28:42.568Z,100027.72
2019-06-20T07:31:14.576Z,100034.49
2019-06-20T07:33:46.515Z,100028.34
2019-06-20T07:36:18.640Z,100030.17
2019-06-20T07:38:50.748Z,100034.47
2019-06-20T07:41:23.056Z,100036.04
2019-06-20T07:43:55.029Z,100039.03
2019-06-20T07:46:27.091Z,100036.75
2019-06-20T07:48:59.441Z,100048.22
2019-06-20T07:51:33.212Z,100041.91
2019-06-20T07:54:06.667Z,100035.49
2019-06-20T07:56:40.304Z,100043.39
2019-06-20T07:59:12.253Z,100043.35
2019-06-20T08:01:44.506Z,100051.85
2019-06-20T08:04:16.926Z,100054.81
2019-06-20T08:06:49.617Z,100053.02
2019-06-20T08:09:22.215Z,100048.39
2019-06-20T08:11:55.967Z,100047.30
2019-06-20T08:14:28.179Z,100045.72
2019-06-20T08:17:00.190Z,100050.98
2019-06-20T08:19:32.947Z,100049.50
2019-06-20T08:22:06.746Z,100050.42
2019-06-20T08:24:38.938Z,100055.22
2019-06-20T08:27:10.910Z,100049.48
2019-06-20T08:29:42.869Z,100048.66
2019-06-20T08:32:14.887Z,100049.59
2019-06-20T08:34:46.867Z,100047.77
2019-06-20T08:37:18.978Z,100045.09
2019-06-20T08:39:50.924Z,100049.41
2019-06-20T08:42:23.039Z,100050.98
2019-06-20T08:44:56.227Z,100044.77
2019-06-20T08:47:28.791Z,100046.63
2019-06-20T08:50:03.769Z,100048.34
2019-06-20T08:52:36.141Z,100044.17
2019-06-20T08:55:09.975Z,100041.77
2019-06-20T08:57:41.995Z,100036.16
2019-06-20T09:00:14.970Z,100027.85
2019-06-20T09:02:46.987Z,100027.72
2019-06-20T09:05:21.504Z,100031.61
2019-06-20T09:07:55.318Z,100028.44
2019-06-20T09:10:36.511Z,100019.66
2019-06-20T09:13:12.113Z,100027.48
2019-06-20T09:15:46.287Z,100025.27
2019-06-20T09:18:18.275Z,100020.82
2019-06-20T09:20:52.738Z,100022.25
2019-06-20T09:23:23.844Z,100025.74
2019-06-20T09:25:55.978Z,100024.75
2019-06-20T09:28:29.160Z,100021.39
2019-06-20T09:31:01.332Z,100021.84
2019-06-20T09:33:33.412Z,100015.12
2019-06-20T09:36:06.001Z,100019.87
2019-06-20T09:38:37.961Z,100013.64
2019-06-20T09:41:10.021Z,100016.70
2019-06-20T09:43:42.470Z,100015.58
2019-06-20T09:46:14.466Z,100012.67
2019-06-20T09:48:46.497Z,100021.20
2019-06-20T09:51:19.466Z,100021.69
2019-06-20T09:53:51.883Z,100027.59
2019-06-20T09:56:23.830Z,100020.06
2019-06-20T09:58:55.895Z,100016.52
2019-06-20T10:01:27.859Z,100022.50
2019-06-20T10:03:59.845Z,100029.40
2019-06-20T10:06:32.028Z,100035.77
2019-06-20T10:09:05.230Z,100036.30
2019-06-20T10:11:37.377Z,100036.45
2019-06-20T10:14:09.637Z,100035.14
2019-06-20T10:16:45.705Z,100036.78
2019-06-20T10:19:15.236Z,100042.38
2019-06-20T10:21:47.858Z,100039.12
2019-06-20T10:24:20.161Z,100040.75
2019-06-20T10:26:53.152Z,100046.29
2019-06-20T10:29:25.451Z,100041.37
2019-06-20T10:31:57.421Z,100040.76
2019-06-20T10:34:31.260Z,100041.27
2019-06-20T10:37:03.295Z,100034.04
2019-06-20T10:39:35.305Z,100037.37
2019-06-20T10:42:07.243Z,100032.03
2019-06-20T10:44:39.257Z,100033.58
2019-06-20T10:47:11.598Z,100032.66
2019-06-20T10:49:44.700Z,100033.79
2019-06-20T10:52:17.851Z,100036.53
2019-06-20T10:54:49.778Z,100042.94
2019-06-20T10:57:24.378Z,100038.24
2019-06-20T10:59:56.316Z,100042.52
2019-06-20T11:02:28.750Z,100047.58
2019-06-20T11:05:00.672Z,100044.05
2019-06-20T11:07:33.165Z,100043.56
2019-06-20T11:10:06.835Z,100044.35
2019-06-20T11:12:47.380Z,100041.13
2019-06-20T11:15:14.931Z,100036.99
2019-06-20T11:17:48.335Z,100040.92
2019-06-20T11:20:22.111Z,100034.45
2019-06-20T11:22:54.120Z,100038.61
2019-06-20T11:25:27.109Z,100034.64
2019-06-20T11:27:59.075Z,100029.55
2019-06-20T11:30:45.014Z,100022.91
2019-06-20T11:33:08.861Z,100026.28
2019-06-20T11:35:41.846Z,100024.42
2019-06-20T11:38:13.902Z,100029.50
2019-06-20T11:40:45.888Z,100026.89
2019-06-20T11:43:19.769Z,100022.80
2019-06-20T11:45:54.796Z,100019.92
2019-06-20T11:48:26.746Z,100021.90
2019-06-20T11:51:00.464Z,100023.72
2019-06-20T11:53:36.545Z,100020.34
2019-06-20T11:56:08.729Z,100020.23
2019-06-20T11:58:40.688Z,100024.96
2019-06-20T12:01:12.660Z,100035.91
2019-06-20T12:03:44.824Z,100030.55
2019-06-20T12:06:16.895Z,100041.80
2019-06-20T12:08:50.839Z,100042.47
2019-06-20T12:11:22.912Z,100041.00
2019-06-20T12:13:54.924Z,100037.25
2019-06-20T12:16:26.883Z,100043.50
2019-06-20T12:18:58.871Z,100041.91
2019-06-20T12:21:30.923Z,100044.95
2019-06-20T12:24:08.364Z,100047.55
2019-06-20T12:26:40.642Z,100038.05
2019-06-20T12:29:13.213Z,100035.19
2019-06-20T12:31:45.847Z,100033.75
2019-06-20T12:34:17.959Z,100032.88
2019-06-20T12:36:50.052Z,100025.75
2019-06-20T12:39:23.876Z,100026.25
2019-06-20T12:41:55.777Z,100032.48
2019-06-20T12:44:27.736Z,100034.56
2019-06-20T12:46:59.702Z,100029.66
2019-06-20T12:49:31.722Z,100027.17
2019-06-20T12:52:04.476Z,100035.92
2019-06-20T12:54:39.571Z,100040.70
2019-06-20T12:57:12.056Z,100036.95
2019-06-20T12:59:44.614Z,100035.46
2019-06-20T13:02:16.647Z,100028.98
2019-06-20T13:04:48.616Z,100034.42
2019-06-20T13:07:20.763Z,100033.19
2019-06-20T13:09:52.700Z,100033.02
2019-06-20T13:12:26.635Z,100028.55
2019-06-20T13:14:59.007Z,100025.03
2019-06-20T13:17:30.967Z,100024.45
2019-06-20T13:20:05.060Z,100022.26
2019-06-20T13:22:37.830Z,100019.64
2019-06-20T13:25:10.915Z,100023.16
2019-06-20T13:27:44.016Z,100023.46
2019-06-20T13:30:17.291Z,100021.78
2019-06-20T13:32:49.331Z,100021.27
2019-06-20T13:35:21.651Z,100014.34
2019-06-20T13:37:53.588Z,100014.57
2019-06-20T13:40:25.795Z,100007.70
2019-06-20T13:42:57.876Z,100016.19
2019-06-20T13:45:29.982Z,100021.08
2019-06-20T13:48:01.915Z,100013.60
2019-06-20T13:50:35.492Z,100018.19
2019-06-20T13:53:07.655Z,100019.30
2019-06-20T13:55:40.673Z,100016.73
2019-06-20T13:58:13.252Z,100013.77
2019-06-20T14:00:45.572Z,100016.55
2019-06-20T14:03:17.819Z,100016.42
2019-06-20T14:05:49.967Z,100023.95
2019-06-20T14:08:22.083Z,100022.55
2019-06-20T14:10:54.447Z,100021.17
2019-06-20T14:13:26.551Z,100027.36
2019-06-20T14:15:58.486Z,100015.90
2019-06-20T14:18:30.581Z,100020.42
2019-06-20T14:21:04.759Z,100016.41
2019-06-20T14:23:36.689Z,100020.35
2019-06-20T14:26:08.631Z,100009.72
2019-06-20T14:28:42.513Z,100018.25
2019-06-20T14:31:14.175Z,100012.96
2019-06-20T14:33:46.192Z,100011.83
2019-06-20T14:36:18.619Z,99978.45
2019-06-20T14:38:51.554Z,100012.20
2019-06-20T14:41:23.548Z,100011.70
2019-06-20T14:43:55.469Z,100013.12
2019-06-20T14:46:29.087Z,100012.12
2019-06-20T14:49:01.053Z,100010.95
2019-06-20T14:51:34.022Z,100007.59
2019-06-20T14:54:06.413Z,100008.35
2019-06-20T14:56:38.453Z,99999.88
2019-06-20T14:59:10.424Z,100003.48
2019-06-20T15:01:44.610Z,99998.34
2019-06-20T15:04:16.158Z,100005.43
2019-06-20T15:06:48.431Z,100000.84
2019-06-20T15:09:21.003Z,99989.17
2019-06-20T15:11:53.319Z,99988.63
2019-06-20T15:14:26.392Z,99988.95
2019-06-20T15:16:58.444Z,99984.67
2019-06-20T15:19:31.087Z,99987.11
2019-06-20T15:22:04.454Z,99983.81
2019-06-20T15:24:36.559Z,99972.88
2019-06-20T15:27:08.625Z,99967.69
2019-06-20T15:29:43.828Z,99964.69
2019-06-20T15:32:15.897Z,99968.44
2019-06-20T15:34:49.330Z,99968.34
2019-06-20T15:37:21.762Z,99963.52
2019-06-20T15:39:55.815Z,99957.68
2019-06-20T15:42:27.770Z,99961.38
2019-06-20T15:45:01.361Z,99960.52
2019-06-20T15:47:34.422Z,99953.83
2019-06-20T15:50:07.019Z,99956.70
2019-06-20T15:52:39.032Z,99950.53
2019-06-20T15:55:12.846Z,99946.60
2019-06-20T15:57:45.051Z,99947.65
2019-06-20T16:00:18.708Z,99955.44
2019-06-20T16:02:50.667Z,99947.05
2019-06-20T16:05:22.709Z,99954.66
2019-06-20T16:07:54.640Z,99957.02
2019-06-20T16:10:27.128Z,99954.77
2019-06-20T16:12:59.103Z,99951.98
2019-06-20T16:15:31.050Z,99962.81
2019-06-20T16:18:03.977Z,99954.06
2019-06-20T16:20:35.911Z,99961.94
2019-06-20T16:23:43.297Z,99963.16
2019-06-20T16:26:15.221Z,99959.34
2019-06-20T16:28:48.767Z,99959.14
2019-06-20T16:31:26.821Z,99954.58
2019-06-20T16:33:54.413Z,99958.23
2019-06-20T16:36:26.711Z,99954.91
2019-06-20T16:38:58.679Z,99955.02
2019-06-20T16:41:30.709Z,99956.78
2019-06-20T16:44:03.634Z,99954.19
2019-06-20T16:46:35.540Z,99955.26
2019-06-20T16:49:07.476Z,99959.31
2019-06-20T16:51:39.471Z,99955.83
2019-06-20T16:54:11.393Z,99963.94
2019-06-20T16:56:43.780Z,99967.31
2019-06-20T16:59:15.695Z,99968.03
2019-06-20T17:01:47.615Z,99972.14
2019-06-20T17:04:19.651Z,99975.19
2019-06-20T17:06:52.059Z,99974.39
2019-06-20T17:09:25.615Z,99978.23
2019-06-20T17:11:57.563Z,99974.02
2019-06-20T17:14:29.713Z,99984.18
2019-06-20T17:17:03.416Z,99976.66
2019-06-20T17:19:35.544Z,99975.68
2019-06-20T17:22:07.567Z,99974.20
2019-06-20T17:24:39.514Z,99975.41
2019-06-20T17:27:11.492Z,99978.06
2019-06-20T17:29:43.432Z,99976.13
2019-06-20T17:32:15.908Z,99976.47
2019-06-20T17:34:47.881Z,99990.81
2019-06-20T17:37:19.833Z,99989.92
2019-06-20T17:39:51.880Z,99989.69
2019-06-20T17:42:24.088Z,99980.47
2019-06-20T17:44:56.192Z,99987.94
2019-06-20T17:47:28.506Z,99978.14
2019-06-20T17:50:01.592Z,99980.94
2019-06-20T17:52:34.578Z,99978.95
2019-06-20T17:55:09.305Z,99981.26
2019-06-20T17:57:41.893Z,99981.62
2019-06-20T18:00:15.575Z,99987.20
2019-06-20T18:02:49.319Z,99983.23
2019-06-20T18:05:21.642Z,99981.30
2019-06-20T18:07:55.330Z,99978.48
2019-06-20T18:10:28.466Z,99981.09
2019-06-20T18:13:00.431Z,99983.94
2019-06-20T18:15:33.917Z,99977.87
2019-06-20T18:18:06.370Z,99981.61
2019-06-20T18:20:38.419Z,99983.49
2019-06-20T18:23:10.523Z,99985.69
2019-06-20T18:25:44.317Z,99980.81
2019-06-20T18:28:17.943Z,99981.65
2019-06-20T18:30:50.055Z,99986.50
2019-06-20T18:33:22.044Z,99981.91
2019-06-20T18:35:55.649Z,99980.27
2019-06-20T18:38:27.824Z,99984.09
2019-06-20T18:40:59.769Z,99987.27
2019-06-20T18:43:31.765Z,99986.33
2019-06-20T18:46:03.696Z,100002.75
2019-06-20T18:48:36.842Z,99997.30
2019-06-20T18:51:08.872Z,100004.92
2019-06-20T18:53:40.976Z,100004.66
2019-06-20T18:56:12.931Z,100001.28
2019-06-20T18:58:44.924Z,100005.83
2019-06-20T19:01:17.056Z,100005.56
2019-06-20T19:03:49.062Z,99997.66
2019-06-20T19:06:35.125Z,100002.39
2019-06-20T19:08:55.271Z,100000.53
2019-06-20T19:11:27.235Z,99997.67
2019-06-20T19:14:00.004Z,100002.55
2019-06-20T19:16:31.972Z,99999.11
2019-06-20T19:19:04.047Z,100001.30
2019-06-20T19:21:37.502Z,100004.78
2019-06-20T19:24:09.586Z,100005.75
2019-06-20T19:26:41.680Z,100003.55
2019-06-20T19:29:13.748Z,100007.89
2019-06-20T19:31:45.808Z,100013.16
2019-06-20T19:34:17.906Z,100009.52
2019-06-20T19:36:51.741Z,100010.25
2019-06-20T19:39:23.731Z,100009.54
2019-06-20T19:41:55.872Z,100014.31
2019-06-20T19:44:27.992Z,100012.34
2019-06-20T19:47:00.165Z,100011.45
2019-06-20T19:49:32.900Z,100018.00
2019-06-20T19:52:05.090Z,100024.11
2019-06-20T19:54:37.172Z,100029.38
2019-06-20T19:57:09.111Z,100028.53
2019-06-20T19:59:41.278Z,100025.42
2019-06-20T20:02:13.963Z,100022.55
2019-06-20T20:04:46.177Z,100022.23
2019-06-20T20:07:18.728Z,100021.54
2019-06-20T20:09:50.832Z,100028.80
2019-06-20T20:12:22.851Z,100028.08
2019-06-20T20:14:54.887Z,100033.27
2019-06-20T20:17:26.857Z,100040.74
2019-06-20T20:19:59.252Z,100047.10
2019-06-20T20:22:31.245Z,100045.54
2019-06-20T20:25:04.728Z,100052.38
2019-06-20T20:27:36.750Z,100058.59
2019-06-20T20:30:09.623Z,100063.27
2019-06-20T20:32:42.104Z,100071.19
2019-06-20T20:35:14.127Z,100077.49
2019-06-20T20:37:46.102Z,100086.38
2019-06-20T20:40:19.880Z,100082.22
2019-06-20T20:42:51.854Z,100091.81
2019-06-20T20:45:24.008Z,100096.33
2019-06-20T20:47:56.062Z,100099.13
2019-06-20T20:50:28.148Z,100106.91
2019-06-20T20:53:00.136Z,100113.23
2019-06-20T20:55:32.181Z,100119.89
2019-06-20T20:58:04.220Z,100114.69
2019-06-20T21:00:47.150Z,100118.31
2019-06-20T21:03:19.292Z,100126.09
2019-06-20T21:05:51.979Z,100132.16
2019-06-20T21:08:24.119Z,100134.47
2019-06-20T21:10:57.222Z,100143.33
2019-06-20T21:13:29.352Z,100142.36
2019-06-20T21:16:02.553Z,100145.27
2019-06-20T21:18:37.228Z,100147.30
2019-06-20T21:21:09.473Z,100144.67
2019-06-20T21:23:42.487Z,100153.52
2019-06-20T21:26:14.529Z,100160.91
2019-06-20T21:28:46.510Z,100161.99
2019-06-20T21:31:18.596Z,100157.64
2019-06-20T21:33:54.170Z,100160.97
2019-06-20T21:36:26.040Z,100158.77
2019-06-20T21:38:58.073Z,100163.82
2019-06-20T21:41:30.021Z,100166.87
2019-06-20T21:44:02.394Z,100172.71
2019-06-20T21:46:34.867Z,100174.55
2019-06-20T21:49:06.928Z,100182.29
2019-06-20T21:51:39.347Z,100185.46
2019-06-20T21:54:11.325Z,100185.19
2019-06-20T21:56:43.275Z,100192.02
2019-06-20T21:59:15.248Z,100187.96
2019-06-20T22:01:48.489Z,100190.05
2019-06-20T22:04:20.594Z,100187.96
2019-06-20T22:06:52.571Z,100189.55
2019-06-20T22:09:24.561Z,100187.61
2019-06-20T22:11:56.539Z,100191.34
2019-06-20T22:14:28.540Z,100189.91
2019-06-20T22:17:00.541Z,100200.23
2019-06-20T22:19:33.298Z,100199.63
2019-06-20T22:22:05.322Z,100205.72
2019-06-20T22:24:37.331Z,100205.12
2019-06-20T22:27:10.377Z,100202.47
2019-06-20T22:29:42.378Z,100199.42
2019-06-20T22:32:14.318Z,100203.16
2019-06-20T22:34:46.330Z,100206.43
2019-06-20T22:37:19.051Z,100202.66
2019-06-20T22:39:51.317Z,100194.89
2019-06-20T22:42:23.410Z,100201.59
2019-06-20T22:44:55.355Z,100198.81
2019-06-20T22:47:27.349Z,100195.36
2019-06-20T22:49:59.269Z,100198.79
2019-06-20T22:52:31.316Z,100199.92
2019-06-20T22:55:03.882Z,100197.20
2019-06-20T22:57:35.847Z,100201.31
2019-06-20T23:00:09.628Z,100198.16
2019-06-20T23:02:41.818Z,100206.91
2019-06-20T23:05:13.853Z,100207.03
2019-06-20T23:07:45.840Z,100214.72
2019-06-20T23:10:17.974Z,100215.52
2019-06-20T23:12:49.951Z,100217.97
2019-06-20T23:15:23.415Z,100217.97
2019-06-20T23:17:55.437Z,100222.02
2019-06-20T23:20:27.476Z,100226.53
2019-06-20T23:23:00.010Z,100224.84
2019-06-20T23:25:32.601Z,100227.97
2019-06-20T23:28:06.546Z,100227.74
2019-06-20T23:30:38.479Z,100229.06
2019-06-20T23:33:10.489Z,100223.23
2019-06-20T23:35:42.464Z,100223.97
2019-06-20T23:38:15.595Z,100230.04
2019-06-20T23:40:49.374Z,100226.98
2019-06-20T23:43:21.605Z,100225.66
2019-06-20T23:45:55.184Z,100228.24
2019-06-20T23:48:27.573Z,100228.42
2019-06-20T23:51:00.300Z,100229.86
2019-06-20T23:53:38.612Z,100227.55
2019-06-20T23:56:17.108Z,100222.08
2019-06-20T23:58:51.398Z,100221.09
